Heber, California
Current Conditions -  °F | °C
As of 1:53 PM on Thursday 27 Nov 2014 (Local Time) from KIPL Reporting Station
Clear Clear  
Wind Chill: 81°   Ceiling: Unl
Heat Index: 81°   Visibility: 10mi
Dew Point: 28°   Wind: 3mph
Humidity: 14%   Direction: 300°WNW
Pressure: 30.05"   Gusts: NA
Location:  32.73°N, 115.53°W
Report Text: KIPL 272153Z AUTO 30003KT 10SM CLR 27/M02 A3005 RMK AO2 SLP174 T02721022
Loading
Personal Weather Stations






























Interactive Weather Map New forecast layout! Learn more

10-Day Weather Forecast

Advertisements
Track Severe Weather on mobile